Details for Emirates at OMDB




Go Back


Latest METAR
Local Time

OMDB 181400Z 36009KT CAVOK 38/15 Q1004 NOSIG
18/09/2018, 18:29:52

Description
Results
Emirates Logo
Number of Pilots based at OMDB
1 Pilots Based here
Number of Emirates Flights Departed from OMDB
2 Flights Departed
Number of Emirates Flights Arrived at OMDB
1 Flights Arrived
Number of Emirates Schedules Departing from OMDB
273 Schedules
Number of Emirates Schedules Arriving at OMDB
273 Schedules
Number of Emirates Schedules Departing from OMDB availible today
248 Schedules Today
Number of Emirates Schedules Arriving at OMDB availible today
248 Schedules Today
Average Landing Rate at OMDB
-225 fpm
Emirates Average Landing Rate at OMDB
-494 fpm
Total Fuel Purchased at OMDB by Emirates
30,971.80 kgs / 68,280.43 lbs

Pilots Based at OMDB


Pilot ID
Pilot Name
Pilot Rank
No. of Flights
No. of Flying Hours
Adam Noble
100
404.11
Content